Time;durP1;ratioP1;P1;durP2;ratioP2;P2;SDS_P1;SDS_P2;PMS_P1;PMS_P2;Temp;Humidity;BMP_temperature;BMP_pressure;BME280_temperature;BME280_humidity;BME280_pressure;Samples;Min_cycle;Max_cycle;Signal;HPM_P1;HPM_P2
2022/01/07 00:01:20;;;;;;;;;;;;;;;20.51;39.70;100758.50;7279337;19;154466;-52
2022/01/07 00:03:48;;;;;;;;;;;;;;;20.48;39.90;100761.13;7283315;19;151842;-51
2022/01/07 00:06:15;;;;;;;;;;;;;;;20.45;39.47;100759.75;7282154;19;152381;-52
2022/01/07 00:08:42;;;;;;;;;;;;;;;20.44;39.59;100758.09;7284265;19;152655;-52
2022/01/07 00:11:09;;;;;;;;;;;;;;;20.41;39.71;100764.31;7280280;19;153219;-52
2022/01/07 00:13:36;;;;;;;;;;;;;;;20.38;39.88;100770.56;7280251;19;153834;-52
2022/01/07 00:16:03;;;;;;;;;;;;;;;20.36;39.46;100775.66;7281451;19;151737;-52
2022/01/07 00:18:30;;;;;;;;;;;;;;;20.32;39.69;100772.63;7279946;19;153420;-52
2022/01/07 00:20:57;;;;;;;;;;;;;;;20.31;39.38;100765.34;7280088;19;153376;-52
2022/01/07 00:23:24;;;;;;;;;;;;;;;20.27;39.81;100757.84;7279914;19;152341;-52
2022/01/07 00:25:52;;;;;;;;;;;;;;;20.25;39.84;100752.56;7282611;19;153191;-52
2022/01/07 00:28:19;;;;;;;;;;;;;;;20.20;39.39;100768.66;7280608;19;153576;-52
2022/01/07 00:30:46;;;;;;;;;;;;;;;20.18;39.45;100768.13;7285727;19;152165;-52
2022/01/07 00:33:13;;;;;;;;;;;;;;;20.15;39.86;100775.19;7277998;19;153320;-52
2022/01/07 00:35:40;;;;;;;;;;;;;;;20.12;39.79;100775.81;7281182;19;152245;-52
2022/01/07 00:38:07;;;;;;;;;;;;;;;20.10;39.76;100774.47;7282988;19;153821;-52
2022/01/07 00:40:34;;;;;;;;;;;;;;;20.07;39.60;100775.09;7278575;19;153707;-52
2022/01/07 00:43:01;;;;;;;;;;;;;;;20.03;39.75;100779.66;7277837;19;152146;-51
2022/01/07 00:45:29;;;;;;;;;;;;;;;19.98;39.36;100772.16;7279418;19;151924;-51
2022/01/07 00:47:56;;;;;;;;;;;;;;;19.94;39.40;100779.53;7282079;19;153522;-52
2022/01/07 00:50:25;;;;;;;;;;;;;;;19.91;39.49;100780.13;7281797;19;152585;-52
2022/01/07 00:52:52;;;;;;;;;;;;;;;19.88;39.41;100783.56;7284789;19;153431;-52
2022/01/07 00:55:19;;;;;;;;;;;;;;;19.85;39.56;100781.38;7281135;19;152186;-52
2022/01/07 00:57:46;;;;;;;;;;;;;;;19.81;39.65;100786.75;7282724;19;153218;-52
2022/01/07 01:00:14;;;;;;;;;;;;;;;19.77;39.26;100780.09;7278845;19;153293;-53
2022/01/07 01:02:41;;;;;;;;;;;;;;;19.74;39.51;100780.72;7279039;19;151737;-52
2022/01/07 01:05:09;;;;;;;;;;;;;;;19.70;39.76;100782.47;7281530;19;154077;-53
2022/01/07 01:07:36;;;;;;;;;;;;;;;19.67;39.75;100769.06;7275329;19;153910;-52
2022/01/07 01:10:07;;;;;;;;;;;;;;;19.62;39.84;100771.97;7281483;19;153697;-52
2022/01/07 01:12:34;;;;;;;;;;;;;;;19.61;39.71;100772.28;7286459;19;153868;-53
2022/01/07 01:15:02;;;;;;;;;;;;;;;19.58;39.53;100767.28;7281382;19;152072;-52
2022/01/07 01:17:29;;;;;;;;;;;;;;;19.55;39.57;100771.53;7284179;19;152634;-52
2022/01/07 01:19:56;;;;;;;;;;;;;;;19.54;39.67;100765.09;7281161;19;152292;-52
2022/01/07 01:22:23;;;;;;;;;;;;;;;19.50;39.75;100760.41;7280007;19;151722;-53
2022/01/07 01:24:49;;;;;;;;;;;;;;;19.56;40.12;100758.34;7280965;19;153546;-51
2022/01/07 01:27:16;;;;;;;;;;;;;;;19.50;40.21;100760.41;7281521;19;153371;-50
2022/01/07 01:29:43;;;;;;;;;;;;;;;19.49;40.48;100762.38;7283722;19;152093;-51
2022/01/07 01:32:10;;;;;;;;;;;;;;;19.46;40.46;100753.75;7282405;19;153092;-51
2022/01/07 01:34:37;;;;;;;;;;;;;;;19.46;40.77;100750.94;7286328;19;151888;-51
2022/01/07 01:37:05;;;;;;;;;;;;;;;19.43;40.92;100758.00;7279051;19;152901;-52
2022/01/07 01:39:31;;;;;;;;;;;;;;;19.39;40.93;100754.13;7277694;19;153246;-51
2022/01/07 01:41:58;;;;;;;;;;;;;;;19.37;41.25;100756.38;7279761;19;151986;-51
2022/01/07 01:44:25;;;;;;;;;;;;;;;19.36;40.85;100759.47;7282039;19;153158;-51
2022/01/07 01:46:52;;;;;;;;;;;;;;;19.33;41.15;100769.34;7282339;19;153370;-51
2022/01/07 01:49:19;;;;;;;;;;;;;;;19.30;41.35;100760.72;7279201;19;152019;-51
2022/01/07 01:51:47;;;;;;;;;;;;;;;19.28;41.31;100761.00;7280726;19;152978;-51
2022/01/07 01:54:14;;;;;;;;;;;;;;;19.28;41.19;100754.56;7276093;19;154108;-51
2022/01/07 01:56:41;;;;;;;;;;;;;;;19.24;41.24;100767.53;7285773;19;152320;-51
2022/01/07 01:59:08;;;;;;;;;;;;;;;19.22;41.67;100772.59;7276168;19;154049;-51
2022/01/07 02:01:35;;;;;;;;;;;;;;;19.19;41.62;100765.63;7279635;19;152840;-51
2022/01/07 02:04:02;;;;;;;;;;;;;;;19.18;41.38;100769.56;7282499;19;153551;-51
2022/01/07 02:06:30;;;;;;;;;;;;;;;19.17;41.25;100769.91;7282950;19;154110;-51
2022/01/07 02:08:56;;;;;;;;;;;;;;;19.13;41.51;100766.84;7282505;19;152205;-51
2022/01/07 02:11:23;;;;;;;;;;;;;;;19.12;41.73;100767.16;7286447;19;153156;-51
2022/01/07 02:13:53;;;;;;;;;;;;;;;19.10;42.10;100765.50;7285746;19;153671;-51
2022/01/07 02:16:23;;;;;;;;;;;;;;;19.08;41.88;100766.91;7286211;19;151893;-51
2022/01/07 02:18:50;;;;;;;;;;;;;;;19.09;41.87;100761.03;7290693;19;152510;-51
2022/01/07 02:21:17;;;;;;;;;;;;;;;19.01;41.86;100775.72;7284277;19;151865;-51
2022/01/07 02:23:44;;;;;;;;;;;;;;;19.00;42.09;100776.84;7284560;19;153552;-51
2022/01/07 02:26:12;;;;;;;;;;;;;;;18.98;41.69;100776.31;7284851;19;153127;-51
2022/01/07 02:28:40;;;;;;;;;;;;;;;18.92;41.96;100782.28;7284593;19;152111;-51
2022/01/07 02:31:07;;;;;;;;;;;;;;;18.89;42.06;100768.91;7284605;19;153357;-50
2022/01/07 02:33:34;;;;;;;;;;;;;;;18.85;42.08;100763.06;7283376;19;153729;-51
2022/01/07 02:36:04;;;;;;;;;;;;;;;18.84;41.79;100757.78;7284551;19;151955;-51
2022/01/07 02:38:31;;;;;;;;;;;;;;;18.83;42.11;100756.94;7284458;19;152018;-51
2022/01/07 02:40:57;;;;;;;;;;;;;;;18.79;42.36;100750.28;7290191;19;155198;-51
2022/01/07 02:43:24;;;;;;;;;;;;;;;18.81;42.38;100753.59;7283574;19;153681;-52
2022/01/07 02:45:51;;;;;;;;;;;;;;;18.69;42.21;100749.59;7283739;19;154743;-51
2022/01/07 02:48:18;;;;;;;;;;;;;;;18.68;42.47;100754.34;7283775;19;152444;-51
2022/01/07 02:50:45;;;;;;;;;;;;;;;18.69;42.24;100746.78;7285556;19;153573;-51
2022/01/07 02:53:12;;;;;;;;;;;;;;;18.67;42.60;100747.91;7282436;19;152468;-51
2022/01/07 02:55:40;;;;;;;;;;;;;;;18.62;42.76;100733.19;7285796;19;153859;-51
2022/01/07 02:58:07;;;;;;;;;;;;;;;18.57;42.76;100736.03;7285493;19;153632;-51
2022/01/07 03:00:35;;;;;;;;;;;;;;;18.56;42.36;100735.22;7283749;19;153275;-51
2022/01/07 03:03:03;;;;;;;;;;;;;;;18.50;42.80;100729.94;7289665;19;151945;-51
2022/01/07 03:05:30;;;;;;;;;;;;;;;18.53;42.50;100738.59;7283544;19;153400;-51
2022/01/07 03:07:58;;;;;;;;;;;;;;;18.51;42.93;100737.19;7285217;19;152270;-51
2022/01/07 03:10:26;;;;;;;;;;;;;;;18.50;42.85;100738.34;7283323;19;152786;-51
2022/01/07 03:12:54;;;;;;;;;;;;;;;18.49;42.71;100739.47;7281888;19;153684;-51
2022/01/07 03:15:22;;;;;;;;;;;;;;;18.45;42.96;100730.00;7280125;19;151786;-51
2022/01/07 03:17:49;;;;;;;;;;;;;;;18.42;42.81;100728.66;7282913;19;153530;-51
2022/01/07 03:20:17;;;;;;;;;;;;;;;18.42;43.23;100725.84;7283265;19;153810;-51
2022/01/07 03:22:45;;;;;;;;;;;;;;;18.41;43.27;100726.97;7290865;19;151842;-51
2022/01/07 03:25:13;;;;;;;;;;;;;;;18.40;43.46;100728.09;7283408;19;153877;-51
2022/01/07 03:27:40;;;;;;;;;;;;;;;18.39;43.57;100726.47;7285071;19;152096;-51
2022/01/07 03:30:07;;;;;;;;;;;;;;;18.40;43.83;100724.47;7284285;19;153142;-51
2022/01/07 03:32:34;;;;;;;;;;;;;;;18.37;43.82;100716.69;7283197;19;153919;-52
2022/01/07 03:35:01;;;;;;;;;;;;;;;18.36;43.79;100718.66;7282300;19;152012;-51
2022/01/07 03:37:29;;;;;;;;;;;;;;;18.35;43.85;100710.56;7281300;19;152907;-52
2022/01/07 03:39:55;;;;;;;;;;;;;;;18.32;44.14;100711.16;7282946;19;152381;-52
2022/01/07 03:42:22;;;;;;;;;;;;;;;18.35;43.91;100716.16;7284050;19;151595;-52
2022/01/07 03:44:49;;;;;;;;;;;;;;;18.34;44.27;100714.50;7290346;19;152608;-51
2022/01/07 03:47:16;;;;;;;;;;;;;;;18.32;44.18;100705.56;7283048;19;152476;-51
2022/01/07 03:49:43;;;;;;;;;;;;;;;18.28;44.48;100707.28;7284301;19;152662;-51
2022/01/07 03:52:10;;;;;;;;;;;;;;;18.27;44.08;100714.84;7283146;19;153262;-51
2022/01/07 03:54:37;;;;;;;;;;;;;;;18.23;44.21;100720.22;7282376;19;152165;-51
2022/01/07 03:57:04;;;;;;;;;;;;;;;18.22;44.36;100721.34;7283525;19;153166;-51
2022/01/07 03:59:30;;;;;;;;;;;;;;;18.23;44.42;100727.75;7285105;19;153719;-51
2022/01/07 04:01:57;;;;;;;;;;;;;;;18.20;44.60;100726.41;7285307;19;152412;-51
2022/01/07 04:04:24;;;;;;;;;;;;;;;18.19;44.62;100732.28;7281785;19;152798;-51
2022/01/07 04:06:51;;;;;;;;;;;;;;;18.16;44.16;100741.28;7289175;19;152169;-51
2022/01/07 04:09:18;;;;;;;;;;;;;;;18.15;44.59;100737.66;7284278;19;152862;-51
2022/01/07 04:11:45;;;;;;;;;;;;;;;18.13;44.34;100725.91;7282218;19;153538;-51
2022/01/07 04:14:12;;;;;;;;;;;;;;;18.09;44.31;100732.41;7281889;19;151872;-51
2022/01/07 04:16:39;;;;;;;;;;;;;;;18.05;44.62;100720.16;7282498;19;153380;-50
2022/01/07 04:19:06;;;;;;;;;;;;;;;18.07;44.64;100726.28;7283306;19;153432;-51
2022/01/07 04:21:33;;;;;;;;;;;;;;;18.04;44.04;100718.47;7284687;19;152099;-51
2022/01/07 04:24:04;;;;;;;;;;;;;;;18.03;44.32;100725.22;7279349;19;153431;-51
2022/01/07 04:26:31;;;;;;;;;;;;;;;17.98;44.23;100723.31;7279692;19;154926;-51
2022/01/07 04:28:57;;;;;;;;;;;;;;;17.98;44.17;100720.53;7291210;19;152027;-52
2022/01/07 04:31:24;;;;;;;;;;;;;;;17.96;44.31;100717.19;7282170;19;153918;-51
2022/01/07 04:33:51;;;;;;;;;;;;;;;17.94;44.63;100707.44;7281226;19;151862;-51
2022/01/07 04:36:17;;;;;;;;;;;;;;;17.90;44.32;100692.41;7282389;19;152158;-51
2022/01/07 04:38:45;;;;;;;;;;;;;;;17.92;44.78;100692.91;7282418;19;154182;-51
2022/01/07 04:41:11;;;;;;;;;;;;;;;17.93;44.80;100700.19;7280990;19;152261;-51
2022/01/07 04:43:38;;;;;;;;;;;;;;;17.90;44.53;100703.59;7281520;19;153352;-52
2022/01/07 04:46:05;;;;;;;;;;;;;;;17.89;44.28;100699.94;7279979;19;154052;-51
2022/01/07 04:48:31;;;;;;;;;;;;;;;17.88;44.51;100722.59;7282491;19;151832;-50
2022/01/07 04:50:58;;;;;;;;;;;;;;;17.85;44.76;100717.59;7286533;19;154382;-50
2022/01/07 04:53:26;;;;;;;;;;;;;;;17.77;44.52;100717.09;7280453;19;151842;-51
2022/01/07 04:55:53;;;;;;;;;;;;;;;17.78;44.75;100707.59;7283116;19;152717;-51
2022/01/07 04:58:20;;;;;;;;;;;;;;;17.77;45.07;100705.94;7279297;19;153466;-51
2022/01/07 05:00:46;;;;;;;;;;;;;;;17.78;44.96;100707.59;7282836;19;151956;-51
2022/01/07 05:03:13;;;;;;;;;;;;;;;17.83;45.05;100712.31;7281106;19;152646;-52
2022/01/07 05:05:41;;;;;;;;;;;;;;;17.83;45.36;100705.88;7278683;19;153878;-51
2022/01/07 05:08:08;;;;;;;;;;;;;;;17.88;45.51;100711.41;7280400;19;152012;-51
2022/01/07 05:10:37;;;;;;;;;;;;;;;17.90;45.56;100721.16;7281199;19;153046;-51
2022/01/07 05:13:06;;;;;;;;;;;;;;;17.95;45.92;100717.47;7276655;19;152262;-51
2022/01/07 05:15:33;;;;;;;;;;;;;;;17.99;45.94;100713.78;7282257;19;152706;-50
2022/01/07 05:18:00;;;;;;;;;;;;;;;18.03;46.18;100712.09;7278460;19;153639;-51
2022/01/07 05:20:26;;;;;;;;;;;;;;;18.08;46.22;100714.78;7282215;19;152385;-51
2022/01/07 05:22:53;;;;;;;;;;;;;;;18.13;46.11;100714.75;7278577;19;152162;-51
2022/01/07 05:25:21;;;;;;;;;;;;;;;18.18;46.40;100713.84;7280028;19;154226;-51
2022/01/07 05:27:47;;;;;;;;;;;;;;;18.22;46.10;100707.34;7281211;19;152169;-51
2022/01/07 05:30:14;;;;;;;;;;;;;;;18.28;45.81;100705.34;7280920;19;152813;-51
2022/01/07 05:32:41;;;;;;;;;;;;;;;18.36;45.80;100712.22;7285533;19;153990;-51
2022/01/07 05:35:08;;;;;;;;;;;;;;;18.42;46.27;100708.22;7279953;19;152780;-50
2022/01/07 05:37:34;;;;;;;;;;;;;;;18.47;45.76;100723.00;7278457;19;153013;-51
2022/01/07 05:40:02;;;;;;;;;;;;;;;18.53;45.86;100716.22;7283109;19;152193;-51
2022/01/07 05:42:28;;;;;;;;;;;;;;;18.58;45.56;100709.72;7286978;19;153455;-51
2022/01/07 05:44:56;;;;;;;;;;;;;;;18.64;45.18;100720.53;7283566;19;153747;-50
2022/01/07 05:47:22;;;;;;;;;;;;;;;18.69;45.44;100733.63;7285484;19;151707;-51
2022/01/07 05:49:49;;;;;;;;;;;;;;;18.76;44.89;100728.47;7287448;19;152798;-51
2022/01/07 05:52:16;;;;;;;;;;;;;;;18.81;44.59;100725.59;7285642;19;153986;-51
2022/01/07 05:54:42;;;;;;;;;;;;;;;18.87;45.08;100730.00;7294688;19;152372;-51
2022/01/07 05:57:09;;;;;;;;;;;;;;;18.93;45.29;100722.38;7286803;19;153398;-51
2022/01/07 05:59:35;;;;;;;;;;;;;;;18.99;44.85;100712.75;7287496;19;151759;-51
2022/01/07 06:02:03;;;;;;;;;;;;;;;19.03;44.50;100716.63;7285005;19;152693;-51
2022/01/07 06:04:29;;;;;;;;;;;;;;;19.08;44.56;100720.16;7281621;19;152505;-51
2022/01/07 06:06:56;;;;;;;;;;;;;;;19.14;44.45;100722.88;7286870;19;151959;-51
2022/01/07 06:09:22;;;;;;;;;;;;;;;19.19;44.57;100736.78;7287241;19;152867;-51
2022/01/07 06:11:49;;;;;;;;;;;;;;;19.23;44.39;100735.88;7283611;19;154268;-52
2022/01/07 06:14:16;;;;;;;;;;;;;;;19.28;44.46;100747.00;7286703;19;152736;-51
2022/01/07 06:16:44;;;;;;;;;;;;;;;19.33;44.20;100740.50;7292889;19;152436;-51
2022/01/07 06:19:11;;;;;;;;;;;;;;;19.37;44.26;100741.53;7284222;19;152423;-51
2022/01/07 06:21:37;;;;;;;;;;;;;;;19.42;44.18;100744.25;7283419;19;152045;-52
2022/01/07 06:24:04;;;;;;;;;;;;;;;19.46;44.05;100740.56;7282329;19;153046;-51
2022/01/07 06:26:31;;;;;;;;;;;;;;;19.51;43.48;100748.06;7284677;19;152056;-51
2022/01/07 06:28:58;;;;;;;;;;;;;;;19.55;43.48;100735.09;7284416;19;153261;-51
2022/01/07 06:31:24;;;;;;;;;;;;;;;19.59;43.34;100738.94;7284688;19;153950;-51
2022/01/07 06:33:51;;;;;;;;;;;;;;;19.64;43.58;100733.25;7286051;19;152513;-52
2022/01/07 06:36:18;;;;;;;;;;;;;;;19.68;43.40;100733.47;7286069;19;152779;-51
2022/01/07 06:38:44;;;;;;;;;;;;;;;19.72;43.24;100726.09;7292152;19;153531;-51
2022/01/07 06:41:14;;;;;;;;;;;;;;;19.75;42.95;100714.28;7283643;19;153562;-51
2022/01/07 06:43:41;;;;;;;;;;;;;;;19.80;43.60;100717.00;7284528;19;154144;-52
2022/01/07 06:46:08;;;;;;;;;;;;;;;19.83;43.08;100717.19;7284223;19;152378;-51
2022/01/07 06:48:35;;;;;;;;;;;;;;;19.87;42.82;100714.59;7287965;19;153182;-50
2022/01/07 06:51:02;;;;;;;;;;;;;;;19.91;42.64;100716.47;7282687;19;153839;-51
2022/01/07 06:53:30;;;;;;;;;;;;;;;19.95;42.66;100716.69;7283424;19;151826;-51
2022/01/07 06:55:57;;;;;;;;;;;;;;;19.97;42.37;100718.06;7283348;19;153174;-52
2022/01/07 06:58:24;;;;;;;;;;;;;;;20.01;42.48;100725.84;7285308;19;153856;-51
2022/01/07 07:00:51;;;;;;;;;;;;;;;20.04;42.19;100731.66;7294372;19;151821;-51
2022/01/07 07:03:18;;;;;;;;;;;;;;;20.08;42.15;100732.69;7281543;19;155149;-51
2022/01/07 07:05:44;;;;;;;;;;;;;;;20.11;42.26;100731.25;7284095;19;152410;-51
2022/01/07 07:08:11;;;;;;;;;;;;;;;20.16;41.92;100736.75;7281122;19;152897;-52
2022/01/07 07:10:38;;;;;;;;;;;;;;;20.18;42.34;100737.25;7283789;19;153874;-52
2022/01/07 07:13:04;;;;;;;;;;;;;;;20.21;42.05;100731.06;7284255;19;152340;-51
2022/01/07 07:15:31;;;;;;;;;;;;;;;20.24;41.92;100725.66;7285230;19;153621;-51
2022/01/07 07:17:58;;;;;;;;;;;;;;;20.28;41.86;100715.47;7284163;19;153475;-51
2022/01/07 07:20:25;;;;;;;;;;;;;;;20.33;42.15;100725.78;7291740;19;152139;-51
2022/01/07 07:22:51;;;;;;;;;;;;;;;20.35;42.00;100718.69;7284922;19;154866;-51
2022/01/07 07:25:22;;;;;;;;;;;;;;;20.39;41.64;100711.34;7283742;19;152197;-52
2022/01/07 07:27:50;;;;;;;;;;;;;;;20.42;42.12;100712.66;7285215;19;153126;-52
2022/01/07 07:30:16;;;;;;;;;;;;;;;20.45;41.79;100723.25;7280232;19;154176;-52
2022/01/07 07:32:43;;;;;;;;;;;;;;;20.46;41.64;100716.50;7283466;19;151928;-51
2022/01/07 07:36:26;;;;;;;;;;;;;;;20.49;41.52;100721.47;7284570;19;154575;-51
2022/01/07 07:37:56;;;;;;;;;;;;;;;20.52;41.53;100729.31;7281161;19;152346;-53
2022/01/07 07:40:23;;;;;;;;;;;;;;;20.55;41.43;100736.25;7282106;19;151811;-51
2022/01/07 07:42:49;;;;;;;;;;;;;;;19.98;34.48;100730.94;7290927;19;152978;-52
2022/01/07 07:45:16;;;;;;;;;;;;;;;19.94;36.40;100732.69;7280619;19;152476;-52
2022/01/07 07:47:43;;;;;;;;;;;;;;;19.98;36.52;100733.75;7283467;19;154082;-52
2022/01/07 07:50:13;;;;;;;;;;;;;;;20.10;36.51;100740.81;7280978;19;153944;-52
2022/01/07 07:52:40;;;;;;;;;;;;;;;20.17;36.55;100746.84;7283210;19;151761;-52
2022/01/07 07:55:07;;;;;;;;;;;;;;;20.20;36.99;100733.03;7286900;19;152582;-52
2022/01/07 07:57:33;;;;;;;;;;;;;;;20.23;36.68;100743.63;7284821;19;153508;-53
2022/01/07 08:00:00;;;;;;;;;;;;;;;20.25;37.17;100737.69;7283676;19;152742;-53
2022/01/07 08:02:30;;;;;;;;;;;;;;;20.26;36.83;100737.38;7283735;19;152906;-52
2022/01/07 08:04:57;;;;;;;;;;;;;;;20.28;36.99;100732.28;7286307;19;153510;-52
2022/01/07 08:07:24;;;;;;;;;;;;;;;20.30;36.90;100729.22;7281781;19;153347;-52
2022/01/07 08:09:52;;;;;;;;;;;;;;;20.32;37.15;100722.13;7282178;19;153713;-52
2022/01/07 08:12:24;;;;;;;;;;;;;;;20.33;37.28;100729.41;7284616;19;151754;-52
2022/01/07 08:17:26;;;;;;;;;;;;;;;20.36;37.21;100725.13;7283019;19;153951;-52
2022/01/07 08:19:53;;;;;;;;;;;;;;;20.37;37.14;100721.19;7283692;19;152027;-52
2022/01/07 08:22:19;;;;;;;;;;;;;;;20.39;37.19;100724.53;7285468;19;153676;-52
2022/01/07 08:24:46;;;;;;;;;;;;;;;20.40;37.33;100709.34;7282815;19;153761;-52
2022/01/07 08:27:13;;;;;;;;;;;;;;;20.39;37.29;100716.94;7295236;19;152578;-52
2022/01/07 08:30:05;;;;;;;;;;;;;;;20.42;37.19;100718.28;7282658;19;152594;-53
2022/01/07 08:35:08;;;;;;;;;;;;;;;20.46;37.58;100716.50;7282948;19;152261;-53
2022/01/07 08:37:35;;;;;;;;;;;;;;;20.47;37.53;100709.75;7280165;19;153322;-52
2022/01/07 08:40:02;;;;;;;;;;;;;;;20.48;37.18;100710.59;7282773;19;152754;-53
2022/01/07 08:42:29;;;;;;;;;;;;;;;20.51;37.20;100724.81;7284067;19;153002;-52
2022/01/07 08:44:56;;;;;;;;;;;;;;;20.51;37.46;100718.38;7280822;19;153362;-53
2022/01/07 08:47:24;;;;;;;;;;;;;;;20.52;37.49;100725.66;7280986;19;152067;-53
2022/01/07 08:49:51;;;;;;;;;;;;;;;20.54;36.97;100741.03;7289561;19;152813;-52
2022/01/07 08:52:20;;;;;;;;;;;;;;;20.54;36.96;100745.81;7260934;19;152050;-52
2022/01/07 08:54:47;;;;;;;;;;;;;;;20.56;37.47;100744.38;7270250;19;153671;-53
2022/01/07 08:57:13;;;;;;;;;;;;;;;20.56;37.31;100749.16;7279546;19;152413;-53
2022/01/07 08:59:40;;;;;;;;;;;;;;;20.58;37.21;100736.44;7280253;19;152534;-50
2022/01/07 09:02:07;;;;;;;;;;;;;;;20.58;36.95;100747.66;7278900;19;152786;-50
2022/01/07 09:04:34;;;;;;;;;;;;;;;20.60;37.42;100753.81;7279590;19;153348;-50
2022/01/07 09:07:01;;;;;;;;;;;;;;;20.61;37.43;100749.88;7281068;19;151974;-51
2022/01/07 09:09:28;;;;;;;;;;;;;;;20.61;36.58;100744.25;7281527;19;153858;-51
2022/01/07 09:11:55;;;;;;;;;;;;;;;20.63;36.76;100747.56;7291596;19;154089;-51
2022/01/07 09:14:21;;;;;;;;;;;;;;;20.64;37.16;100749.22;7281742;19;152441;-52
2022/01/07 09:16:48;;;;;;;;;;;;;;;20.64;36.95;100745.59;7280732;19;151971;-51
2022/01/07 09:19:15;;;;;;;;;;;;;;;20.65;36.83;100739.69;7278983;19;152408;-51
2022/01/07 09:21:42;;;;;;;;;;;;;;;20.66;36.81;100734.91;7279866;19;153310;-51
2022/01/07 09:24:08;;;;;;;;;;;;;;;20.67;36.61;100728.13;7276412;19;156292;-52
2022/01/07 09:26:35;;;;;;;;;;;;;;;20.68;36.77;100733.41;7281755;19;152340;-51
2022/01/07 09:29:02;;;;;;;;;;;;;;;20.70;36.67;100727.50;7281102;19;153351;-51
2022/01/07 09:31:29;;;;;;;;;;;;;;;20.70;37.11;100727.50;7284145;19;153686;-51
2022/01/07 09:33:55;;;;;;;;;;;;;;;20.68;36.55;100736.22;7278483;19;153389;-51
2022/01/07 09:36:42;;;;;;;;;;;;;;;20.67;36.06;100734.56;7278356;19;155741;-51
2022/01/07 09:39:09;;;;;;;;;;;;;;;20.67;36.49;100740.19;7277976;19;152762;-51
2022/01/07 09:41:35;;;;;;;;;;;;;;;20.67;36.20;100750.59;7280955;19;152778;-51
2022/01/07 09:44:02;;;;;;;;;;;;;;;20.65;35.95;100750.91;7279865;19;154173;-51
2022/01/07 09:46:29;;;;;;;;;;;;;;;20.64;36.28;100754.00;7274683;19;152104;-51
2022/01/07 09:48:55;;;;;;;;;;;;;;;20.60;36.22;100753.81;7277612;19;153677;-52
2022/01/07 09:51:22;;;;;;;;;;;;;;;20.61;36.15;100758.28;7278501;19;153862;-51
2022/01/07 09:53:49;;;;;;;;;;;;;;;20.59;36.41;100756.94;7289028;19;151909;-52
2022/01/07 09:56:17;;;;;;;;;;;;;;;20.57;36.14;100767.66;7274080;19;153817;-52
2022/01/07 09:58:44;;;;;;;;;;;;;;;20.54;36.32;100766.28;7279419;19;151687;-52
2022/01/07 10:01:14;;;;;;;;;;;;;;;20.52;35.75;100762.97;7277173;19;152440;-52
2022/01/07 10:03:41;;;;;;;;;;;;;;;20.51;35.70;100774.50;7276531;19;153543;-52
2022/01/07 10:06:18;;;;;;;;;;;;;;;20.49;36.37;100766.38;7275857;19;152096;-53
2022/01/07 10:08:46;;;;;;;;;;;;;;;20.46;36.21;100778.25;7277120;19;154663;-52
2022/01/07 10:11:15;;;;;;;;;;;;;;;20.42;36.08;100782.81;7275782;19;153309;-53
2022/01/07 10:13:42;;;;;;;;;;;;;;;20.41;35.98;100779.19;7280540;19;151869;-53
2022/01/07 10:16:18;;;;;;;;;;;;;;;20.44;36.12;100791.78;7284432;19;153116;-52
2022/01/07 10:18:51;;;;;;;;;;;;;;;20.46;35.83;100794.25;7279525;19;151935;-52
2022/01/07 10:21:19;;;;;;;;;;;;;;;20.44;35.60;100788.13;7279284;19;153320;-52
2022/01/07 10:23:46;;;;;;;;;;;;;;;20.42;35.45;100797.69;7276780;19;154033;-53
2022/01/07 10:26:21;;;;;;;;;;;;;;;20.46;35.82;100794.25;7281670;19;151823;-52
2022/01/07 10:28:49;;;;;;;;;;;;;;;20.45;35.69;100804.66;7283062;19;153249;-53
2022/01/07 10:31:21;;;;;;;;;;;;;;;20.46;35.63;100805.47;7282738;19;154264;-53
2022/01/07 10:33:50;;;;;;;;;;;;;;;20.41;35.73;100812.03;7285822;19;151893;-53
2022/01/07 10:36:19;;;;;;;;;;;;;;;20.38;35.72;100801.44;7285241;19;153580;-53
2022/01/07 10:38:50;;;;;;;;;;;;;;;20.37;35.27;100796.97;7294479;19;154297;-52
2022/01/07 10:41:16;;;;;;;;;;;;;;;20.38;35.94;100802.28;7287221;19;152403;-52
2022/01/07 10:43:43;;;;;;;;;;;;;;;20.35;35.29;100804.88;7283202;19;154120;-52
2022/01/07 10:46:10;;;;;;;;;;;;;;;20.31;35.70;100795.38;7281089;19;153121;-53
2022/01/07 10:48:40;;;;;;;;;;;;;;;20.29;35.23;100795.69;7286026;19;152920;-53
2022/01/07 10:51:09;;;;;;;;;;;;;;;20.25;35.47;100813.44;7283811;19;152879;-52
2022/01/07 10:53:37;;;;;;;;;;;;;;;20.23;35.60;100816.56;7283771;19;152077;-52
2022/01/07 10:56:12;;;;;;;;;;;;;;;20.19;35.41;100821.13;7279083;19;153829;-52
2022/01/07 10:58:46;;;;;;;;;;;;;;;20.11;35.28;100813.44;7283153;19;153724;-53
2022/01/07 11:01:22;;;;;;;;;;;;;;;20.08;35.01;100800.00;7293092;19;151991;-52
2022/01/07 11:03:50;;;;;;;;;;;;;;;20.06;35.03;100781.84;7281255;19;153831;-52
2022/01/07 11:06:17;;;;;;;;;;;;;;;20.05;35.20;100763.34;7282043;19;152026;-52
2022/01/07 11:08:48;;;;;;;;;;;;;;;20.00;35.37;100767.06;7282421;19;153192;-52
2022/01/07 11:11:14;;;;;;;;;;;;;;;19.95;35.30;100789.59;7281165;19;153938;-52
2022/01/07 11:13:41;;;;;;;;;;;;;;;19.93;35.16;100797.50;7284517;19;151999;-52
2022/01/07 11:16:08;;;;;;;;;;;;;;;19.87;35.45;100798.72;7281650;19;154379;-52
2022/01/07 11:18:36;;;;;;;;;;;;;;;19.88;35.27;100808.81;7282025;19;153608;-53
2022/01/07 11:21:04;;;;;;;;;;;;;;;19.84;35.21;100799.34;7283044;19;152455;-52
2022/01/07 11:23:31;;;;;;;;;;;;;;;19.81;35.45;100802.75;7289284;19;152855;-53
2022/01/07 11:26:03;;;;;;;;;;;;;;;19.79;35.36;100794.66;7284964;19;152035;-53
2022/01/07 11:28:30;;;;;;;;;;;;;;;19.77;35.52;100801.69;7283083;19;153298;-53
2022/01/07 11:31:08;;;;;;;;;;;;;;;19.74;35.44;100793.91;7281993;19;153711;-52
2022/01/07 11:33:34;;;;;;;;;;;;;;;19.72;35.88;100768.97;7284576;19;151808;-52
2022/01/07 11:36:01;;;;;;;;;;;;;;;19.68;35.77;100770.72;7283453;19;151859;-52
2022/01/07 11:38:33;;;;;;;;;;;;;;;19.66;35.58;100770.22;7282466;19;153413;-52
2022/01/07 11:41:01;;;;;;;;;;;;;;;19.66;35.84;100791.81;7281348;19;151802;-52
2022/01/07 11:43:32;;;;;;;;;;;;;;;19.60;35.74;100763.03;7289412;19;153361;-52
2022/01/07 11:46:00;;;;;;;;;;;;;;;19.62;35.58;100768.34;7285707;19;152153;-52
2022/01/07 11:48:30;;;;;;;;;;;;;;;19.66;35.61;100756.22;7284730;19;153364;-52
2022/01/07 11:50:59;;;;;;;;;;;;;;;19.66;35.62;100755.38;7279541;19;153299;-51
2022/01/07 11:53:45;;;;;;;;;;;;;;;19.70;36.04;100750.81;7284170;19;152057;-53
2022/01/07 11:56:13;;;;;;;;;;;;;;;19.75;35.73;100750.72;7278935;19;153693;-52
2022/01/07 11:58:42;;;;;;;;;;;;;;;19.81;35.98;100743.88;7276716;19;154095;-51
2022/01/07 12:01:19;;;;;;;;;;;;;;;19.85;35.81;100759.75;7283078;19;152210;-51
2022/01/07 12:03:46;;;;;;;;;;;;;;;19.89;35.90;100737.56;7283454;19;153213;-51
2022/01/07 12:06:29;;;;;;;;;;;;;;;19.92;36.13;100736.94;7286576;19;153966;-51
2022/01/07 12:08:57;;;;;;;;;;;;;;;19.98;35.83;100752.53;7281225;19;153547;-51
2022/01/07 12:11:25;;;;;;;;;;;;;;;20.01;36.03;100782.75;7280551;19;152856;-52
2022/01/07 12:13:52;;;;;;;;;;;;;;;20.04;35.92;100778.50;7283748;19;152810;-51
2022/01/07 12:16:19;;;;;;;;;;;;;;;20.08;35.77;100760.72;7283606;19;153676;-52
2022/01/07 12:18:46;;;;;;;;;;;;;;;20.12;35.51;100777.81;7279613;19;153362;-52
2022/01/07 12:21:13;;;;;;;;;;;;;;;20.15;36.03;100769.59;7282978;19;151831;-51
2022/01/07 12:23:41;;;;;;;;;;;;;;;20.19;35.89;100781.00;7283159;19;153858;-52
2022/01/07 12:26:08;;;;;;;;;;;;;;;20.19;35.58;100776.25;7279931;19;153379;-52
2022/01/07 12:28:36;;;;;;;;;;;;;;;20.24;35.54;100772.50;7290160;19;151820;-51
2022/01/07 12:31:11;;;;;;;;;;;;;;;20.27;36.05;100769.91;7283174;19;153386;-52
2022/01/07 12:33:47;;;;;;;;;;;;;;;20.30;35.73;100757.28;7287001;19;151894;-51
2022/01/07 12:36:23;;;;;;;;;;;;;;;20.32;35.70;100764.22;7282001;19;153480;-52